Time;durP1;ratioP1;P1;durP2;ratioP2;P2;SDS_P1;SDS_P2;PMS_P1;PMS_P2;Temp;Humidity;BMP_temperature;BMP_pressure;BME280_temperature;BME280_humidity;BME280_pressure;Samples;Min_cycle;Max_cycle;Signal;HPM_P1;HPM_P2
2023/04/28 00:03:37;;;;;;;4.77;3.70;;;12.20;1.00;;;;;;5055323;28;20443;-80
2023/04/28 00:12:51;;;;;;;11.53;4.00;;;12.30;1.00;;;;;;5036212;28;20473;-80
2023/04/28 00:19:10;;;;;;;7.60;4.10;;;12.30;1.00;;;;;;5075221;28;20369;-81
2023/04/28 00:22:27;;;;;;;7.63;4.63;;;12.30;1.00;;;;;;5075137;28;20368;-80
2023/04/28 00:25:45;;;;;;;8.23;4.57;;;12.30;1.00;;;;;;5035150;28;20448;-81
2023/04/28 00:28:15;;;;;;;11.50;5.23;;;12.40;1.00;;;;;;5035096;28;20399;-73
2023/04/28 00:30:41;;;;;;;12.50;4.77;;;12.40;1.00;;;;;;5033979;28;20464;-73
2023/04/28 00:33:07;;;;;;;11.23;4.53;;;12.40;1.00;;;;;;5034886;28;20478;-73
2023/04/28 00:35:45;;;;;;;7.57;4.80;;;12.50;1.00;;;;;;5065240;28;20179;-73
2023/04/28 00:38:11;;;;;;;7.37;5.30;;;12.40;1.00;;;;;;5056851;28;20179;-73
2023/04/28 00:40:38;;;;;;;9.70;4.87;;;12.40;1.00;;;;;;5071573;28;20426;-73
2023/04/28 00:43:04;;;;;;;9.47;5.60;;;12.30;1.00;;;;;;5041864;28;20203;-73
2023/04/28 00:45:30;;;;;;;11.23;4.30;;;12.50;1.00;;;;;;5034552;28;20457;-74
2023/04/28 00:47:58;;;;;;;7.50;4.10;;;12.40;1.00;;;;;;5034883;28;20837;-73
2023/04/28 00:50:25;;;;;;;9.87;4.10;;;12.40;1.00;;;;;;5047177;28;20495;-73
2023/04/28 00:52:52;;;;;;;6.73;4.40;;;12.30;1.00;;;;;;5054024;28;20437;-73
2023/04/28 00:55:19;;;;;;;6.57;4.23;;;12.30;1.00;;;;;;5059483;28;20416;-73
2023/04/28 00:57:45;;;;;;;10.30;4.47;;;12.30;1.00;;;;;;5054491;28;20418;-73
2023/04/28 01:00:12;;;;;;;10.83;5.10;;;12.30;1.00;;;;;;5036170;28;20465;-72
2023/04/28 01:02:38;;;;;;;6.60;4.30;;;12.30;1.00;;;;;;5054457;28;20453;-73
2023/04/28 01:05:04;;;;;;;9.00;4.50;;;12.30;1.00;;;;;;5069172;28;20437;-73
2023/04/28 01:07:33;;;;;;;14.97;4.23;;;12.30;1.00;;;;;;5069179;28;20403;-73
2023/04/28 01:10:04;;;;;;;7.57;4.70;;;12.30;1.00;;;;;;5036753;28;20475;-73
2023/04/28 01:12:30;;;;;;;5.60;4.03;;;12.30;1.00;;;;;;5043111;28;20416;-73
2023/04/28 01:14:56;;;;;;;8.33;3.90;;;12.20;1.00;;;;;;5041619;28;20451;-73
2023/04/28 01:17:23;;;;;;;5.93;3.87;;;12.20;1.00;;;;;;5062421;28;20896;-73
2023/04/28 01:19:52;;;;;;;10.57;4.73;;;12.20;1.00;;;;;;5034305;28;20499;-73
2023/04/28 01:22:17;;;;;;;10.33;4.77;;;12.20;1.00;;;;;;5034664;28;21003;-73
2023/04/28 01:24:43;;;;;;;8.73;4.40;;;12.20;1.00;;;;;;5032394;28;20418;-73
2023/04/28 01:30:30;;;;;;;7.93;4.30;;;12.20;1.00;;;;;;5052854;28;20209;-80
2023/04/28 01:36:18;;;;;;;6.47;4.30;;;12.20;1.00;;;;;;5046318;28;20253;-80
2023/04/28 01:42:05;;;;;;;8.10;4.10;;;12.20;1.00;;;;;;5034686;28;20231;-80
2023/04/28 01:47:53;;;;;;;6.63;4.23;;;12.20;1.00;;;;;;5045854;28;20229;-80
2023/04/28 01:53:40;;;;;;;9.13;4.30;;;12.20;1.00;;;;;;5045329;28;20258;-80
2023/04/28 01:56:09;;;;;;;9.80;4.83;;;12.30;1.00;;;;;;5033945;28;20430;-80
2023/04/28 01:58:35;;;;;;;7.63;4.73;;;12.30;1.00;;;;;;5034126;28;20184;-73
2023/04/28 02:01:10;;;;;;;6.43;5.30;;;12.20;1.00;;;;;;5053160;28;20881;-73
2023/04/28 02:03:36;;;;;;;10.00;4.97;;;12.20;1.00;;;;;;5043330;28;20195;-73
2023/04/28 02:06:01;;;;;;;6.77;4.67;;;12.20;1.00;;;;;;5033403;28;20370;-73
2023/04/28 02:08:28;;;;;;;5.70;4.60;;;12.20;1.00;;;;;;5042273;28;20716;-73
2023/04/28 02:10:53;;;;;;;9.03;4.90;;;12.20;1.00;;;;;;5053657;28;20167;-74
2023/04/28 02:13:19;;;;;;;13.20;4.80;;;12.20;1.00;;;;;;5054742;28;20445;-73
2023/04/28 02:15:45;;;;;;;11.80;5.53;;;12.20;1.00;;;;;;5056766;28;20246;-73
2023/04/28 02:18:10;;;;;;;7.70;4.73;;;12.20;1.00;;;;;;5054996;28;20187;-73
2023/04/28 02:20:40;;;;;;;13.83;5.83;;;12.20;1.00;;;;;;5056777;28;20611;-73
2023/04/28 02:23:05;;;;;;;10.73;5.20;;;12.20;1.00;;;;;;5040476;28;20535;-73
2023/04/28 02:25:31;;;;;;;8.07;5.60;;;12.10;1.00;;;;;;5056686;28;20421;-73
2023/04/28 02:27:58;;;;;;;7.50;5.40;;;12.10;1.00;;;;;;5056855;28;20221;-73
2023/04/28 02:30:23;;;;;;;14.87;5.00;;;12.10;1.00;;;;;;5056587;28;20197;-73
2023/04/28 02:32:49;;;;;;;9.33;6.40;;;12.10;1.00;;;;;;5054247;28;20412;-73
2023/04/28 02:35:15;;;;;;;8.30;6.43;;;12.10;1.00;;;;;;5057026;28;20186;-73
2023/04/28 02:37:41;;;;;;;9.00;5.50;;;12.10;1.00;;;;;;5057272;28;20737;-73
2023/04/28 02:40:07;;;;;;;17.23;6.23;;;12.00;1.00;;;;;;5057089;28;20262;-73
2023/04/28 02:43:15;;;;;;;9.00;5.70;;;12.00;1.00;;;;;;5057072;28;20202;-79
2023/04/28 02:49:03;;;;;;;10.63;6.70;;;11.90;1.00;;;;;;5057178;28;20415;-80
2023/04/28 02:55:23;;;;;;;8.97;6.20;;;11.80;1.00;;;;;;5076186;28;20692;-80
2023/04/28 02:57:49;;;;;;;11.27;5.77;;;11.80;1.00;;;;;;5077121;28;20415;-73
2023/04/28 03:00:15;;;;;;;8.43;6.17;;;11.80;1.00;;;;;;5076839;28;20421;-73
2023/04/28 03:02:45;;;;;;;10.87;6.23;;;11.80;1.00;;;;;;5076796;28;20524;-73
2023/04/28 03:05:28;;;;;;;7.40;6.00;;;11.80;1.00;;;;;;5046374;28;20423;-72
2023/04/28 03:07:53;;;;;;;9.80;6.53;;;11.80;1.00;;;;;;5036802;28;20366;-73
2023/04/28 03:10:19;;;;;;;8.50;6.20;;;11.70;1.00;;;;;;5036766;28;20711;-74
2023/04/28 03:12:45;;;;;;;14.47;6.87;;;11.70;1.00;;;;;;5049479;28;20196;-73
2023/04/28 03:15:11;;;;;;;9.30;6.53;;;11.70;1.00;;;;;;5056285;28;20918;-73
2023/04/28 03:17:40;;;;;;;9.37;7.17;;;11.70;1.00;;;;;;5056137;28;20241;-73
2023/04/28 03:20:07;;;;;;;11.27;6.93;;;11.70;1.00;;;;;;5049847;28;20179;-73
2023/04/28 03:22:33;;;;;;;13.73;6.93;;;11.70;1.00;;;;;;5056021;28;20431;-73
2023/04/28 03:25:04;;;;;;;15.43;6.60;;;11.70;1.00;;;;;;5055297;28;20424;-73
2023/04/28 03:27:30;;;;;;;17.97;7.10;;;11.70;1.00;;;;;;5056129;28;20919;-73
2023/04/28 03:33:17;;;;;;;6.97;5.67;;;11.70;1.00;;;;;;5054795;28;20449;-80
2023/04/28 03:39:05;;;;;;;14.93;6.80;;;11.70;1.00;;;;;;5076190;28;20236;-80
2023/04/28 03:45:45;;;;;;;19.63;7.10;;;11.60;1.00;;;;;;5043328;28;20389;-80
2023/04/28 03:51:33;;;;;;;13.17;7.43;;;11.40;1.00;;;;;;5047467;28;20468;-83
2023/04/28 03:54:27;;;;;;;13.50;7.10;;;11.40;1.00;;;;;;5044275;28;20491;-85
2023/04/28 03:57:04;;;;;;;10.20;6.90;;;11.40;1.00;;;;;;5029986;28;20242;-83
2023/04/28 04:02:51;;;;;;;15.70;6.90;;;11.50;1.00;;;;;;5054596;28;20461;-82
2023/04/28 04:05:45;;;;;;;8.93;6.83;;;11.50;1.00;;;;;;5055461;28;20394;-82
2023/04/28 04:11:33;;;;;;;9.33;6.40;;;11.50;1.00;;;;;;5040790;28;20389;-82
2023/04/28 04:17:20;;;;;;;12.30;7.07;;;11.60;1.00;;;;;;5050391;28;20186;-82
2023/04/28 04:26:57;;;;;;;7.87;6.47;;;11.60;1.00;;;;;;5054969;28;20818;-82
2023/04/28 04:36:27;;;;;;;9.60;6.70;;;11.60;1.00;;;;;;5034735;28;20397;-82
2023/04/28 04:45:37;;;;;;;18.17;8.30;;;11.60;1.00;;;;;;5074910;28;20347;-83
2023/04/28 04:51:24;;;;;;;9.97;6.73;;;11.70;1.00;;;;;;5034950;28;20163;-83
2023/04/28 04:57:12;;;;;;;15.37;7.20;;;11.70;1.00;;;;;;5040582;28;20262;-83
2023/04/28 04:59:40;;;;;;;9.73;6.70;;;11.80;1.00;;;;;;5036947;28;20807;-83
2023/04/28 05:05:27;;;;;;;10.93;6.53;;;11.80;1.00;;;;;;5043414;28;20398;-83
2023/04/28 05:11:15;;;;;;;11.60;7.53;;;11.80;1.00;;;;;;5056735;28;20311;-83
2023/04/28 05:17:03;;;;;;;11.40;8.07;;;11.90;1.00;;;;;;5034627;28;20569;-84
2023/04/28 05:19:40;;;;;;;14.97;8.23;;;12.00;1.00;;;;;;5028190;28;20400;-83
2023/04/28 05:22:22;;;;;;;10.87;7.90;;;12.00;1.00;;;;;;5032424;28;20709;-84
2023/04/28 05:28:09;;;;;;;9.70;7.60;;;12.10;1.00;;;;;;5048900;28;20437;-75
2023/04/28 05:30:40;;;;;;;12.07;8.27;;;12.10;1.00;;;;;;5053822;28;20385;-74
2023/04/28 05:33:05;;;;;;;17.60;7.87;;;12.20;1.00;;;;;;5063586;28;20194;-74
2023/04/28 05:35:34;;;;;;;12.80;8.33;;;12.20;1.00;;;;;;5074246;28;20393;-74
2023/04/28 05:38:05;;;;;;;12.27;7.87;;;12.30;1.00;;;;;;5074074;28;20158;-74
2023/04/28 05:40:40;;;;;;;16.30;8.40;;;12.20;1.00;;;;;;5060353;28;20431;-74
2023/04/28 05:43:10;;;;;;;15.93;8.27;;;12.20;1.00;;;;;;5044070;28;20907;-74
2023/04/28 05:45:35;;;;;;;15.30;9.20;;;12.20;1.00;;;;;;5050538;28;20413;-74
2023/04/28 05:48:16;;;;;;;15.40;9.10;;;12.20;1.00;;;;;;5053208;28;20419;-74
2023/04/28 05:50:46;;;;;;;14.10;8.40;;;12.20;1.00;;;;;;5053965;28;20190;-74
2023/04/28 05:53:16;;;;;;;12.20;8.30;;;12.30;1.00;;;;;;5053949;28;20373;-74
2023/04/28 05:55:41;;;;;;;16.53;8.33;;;12.40;1.00;;;;;;5053502;28;20884;-74
2023/04/28 05:58:10;;;;;;;22.13;9.10;;;12.60;1.00;;;;;;5050667;28;20393;-74
2023/04/28 06:03:57;;;;;;;18.33;9.73;;;12.70;1.00;;;;;;5053472;28;20447;-80
2023/04/28 06:07:03;;;;;;;11.90;8.80;;;12.60;1.00;;;;;;5053552;28;20866;-80
2023/04/28 06:09:46;;;;;;;14.53;9.40;;;12.60;1.00;;;;;;5053796;28;20160;-80
2023/04/28 06:15:33;;;;;;;12.33;8.23;;;12.50;1.00;;;;;;5033939;28;20410;-74
2023/04/28 06:18:06;;;;;;;19.97;9.20;;;12.50;1.00;;;;;;5033664;28;20395;-74
2023/04/28 06:20:34;;;;;;;17.23;9.33;;;12.50;1.00;;;;;;5033646;28;20498;-74
2023/04/28 06:23:10;;;;;;;14.00;9.37;;;12.50;1.00;;;;;;5033591;28;20499;-73
2023/04/28 06:25:35;;;;;;;16.63;9.17;;;12.50;1.00;;;;;;5033628;28;20406;-74
2023/04/28 06:28:05;;;;;;;18.50;9.20;;;12.50;1.00;;;;;;5033588;28;20366;-74
2023/04/28 06:40:36;;;;;;;14.60;9.57;;;12.60;1.00;;;;;;5033020;28;20506;-80
2023/04/28 06:46:24;;;;;;;13.67;9.20;;;12.70;1.00;;;;;;5034221;28;20207;-80
2023/04/28 06:52:13;;;;;;;12.37;9.47;;;12.70;1.00;;;;;;5033396;28;20200;-80
2023/04/28 06:54:40;;;;;;;19.03;9.30;;;12.70;1.00;;;;;;5035428;28;20898;-80
2023/04/28 07:00:27;;;;;;;16.77;9.53;;;12.80;1.00;;;;;;5047781;28;20495;-73
2023/04/28 07:02:58;;;;;;;13.50;10.10;;;12.80;1.00;;;;;;5056880;28;20544;-74
2023/04/28 07:05:24;;;;;;;16.53;10.63;;;12.80;1.00;;;;;;5052933;28;20738;-74
2023/04/28 07:07:52;;;;;;;17.20;10.70;;;12.80;1.00;;;;;;5045248;28;20408;-74
2023/04/28 07:10:18;;;;;;;17.23;10.20;;;12.80;1.00;;;;;;5057065;28;20529;-73
2023/04/28 07:12:52;;;;;;;17.87;10.57;;;12.80;1.00;;;;;;5048056;28;20417;-74
2023/04/28 07:15:18;;;;;;;14.10;9.87;;;12.90;1.00;;;;;;5037129;28;20402;-74
2023/04/28 07:17:44;;;;;;;20.40;10.30;;;13.00;1.00;;;;;;5036814;28;20405;-74
2023/04/28 07:20:10;;;;;;;15.50;10.30;;;13.00;1.00;;;;;;5036821;28;20157;-74
2023/04/28 07:22:46;;;;;;;16.07;10.20;;;13.00;1.00;;;;;;5036678;28;20199;-74
2023/04/28 07:25:28;;;;;;;16.00;10.07;;;13.00;1.00;;;;;;5036592;28;20373;-74
2023/04/28 07:27:58;;;;;;;16.20;10.00;;;13.10;1.00;;;;;;5036511;28;20394;-74
2023/04/28 07:30:40;;;;;;;15.87;10.27;;;13.00;1.00;;;;;;5036898;28;20395;-75
2023/04/28 07:33:22;;;;;;;18.20;10.30;;;13.00;1.00;;;;;;5036528;28;20410;-74
2023/04/28 07:35:58;;;;;;;13.60;9.80;;;13.20;1.00;;;;;;5036505;28;20395;-74
2023/04/28 07:38:24;;;;;;;16.63;9.67;;;13.30;1.00;;;;;;5053837;28;20524;-74
2023/04/28 07:40:52;;;;;;;18.23;9.93;;;13.40;1.00;;;;;;5068033;28;20479;-74
2023/04/28 07:43:17;;;;;;;19.70;10.30;;;13.40;1.00;;;;;;5056017;28;20544;-74
2023/04/28 07:49:05;;;;;;;15.90;9.63;;;13.40;1.00;;;;;;5055928;28;20195;-80
2023/04/28 07:54:52;;;;;;;15.67;9.83;;;13.40;1.00;;;;;;5055701;28;20171;-80
2023/04/28 08:00:40;;;;;;;25.47;12.90;;;13.50;1.00;;;;;;5052499;28;20665;-75
2023/04/28 08:03:10;;;;;;;22.13;11.13;;;13.60;1.00;;;;;;5055665;28;20457;-74
2023/04/28 08:05:46;;;;;;;29.70;11.80;;;13.80;1.00;;;;;;5042101;28;20212;-74
2023/04/28 08:08:11;;;;;;;15.47;9.80;;;14.00;1.00;;;;;;5035308;28;20521;-74
2023/04/28 08:10:46;;;;;;;17.87;9.43;;;14.00;1.00;;;;;;5035115;28;20416;-74
2023/04/28 08:13:15;;;;;;;12.63;9.53;;;14.00;1.00;;;;;;5035766;28;20654;-74
2023/04/28 08:19:03;;;;;;;15.77;9.90;;;14.00;1.00;;;;;;5035244;28;20453;-80
2023/04/28 08:24:50;;;;;;;15.00;9.43;;;14.20;1.00;;;;;;5035343;28;20199;-81
2023/04/28 08:30:38;;;;;;;12.77;9.37;;;14.20;1.00;;;;;;5035186;28;20155;-81
2023/04/28 08:33:04;;;;;;;18.90;10.17;;;14.10;1.00;;;;;;5035422;28;20403;-74
2023/04/28 08:35:30;;;;;;;13.37;10.53;;;14.10;1.00;;;;;;5035273;28;20161;-74
2023/04/28 08:37:56;;;;;;;14.40;10.60;;;14.00;1.00;;;;;;5042128;28;20397;-74
2023/04/28 08:40:23;;;;;;;16.90;12.03;;;14.10;1.00;;;;;;5055012;28;20192;-74
2023/04/28 08:42:49;;;;;;;15.17;10.70;;;14.30;1.00;;;;;;5055035;28;20445;-74
2023/04/28 08:45:15;;;;;;;19.83;10.30;;;14.20;1.00;;;;;;5055024;28;20365;-74
2023/04/28 08:51:05;;;;;;;13.00;10.33;;;14.30;1.00;;;;;;5054759;28;20505;-80
2023/04/28 08:56:54;;;;;;;17.10;11.70;;;14.30;1.00;;;;;;5035901;28;20538;-80
2023/04/28 09:02:46;;;;;;;24.40;11.53;;;14.40;1.00;;;;;;5045733;28;20486;-74
2023/04/28 09:05:13;;;;;;;16.53;11.80;;;14.50;1.00;;;;;;5036646;28;20410;-74
2023/04/28 09:08:03;;;;;;;20.43;12.60;;;14.60;1.00;;;;;;5039389;28;20791;-74
2023/04/28 09:10:29;;;;;;;23.07;11.77;;;14.70;1.00;;;;;;5034558;28;21082;-74
2023/04/28 09:12:58;;;;;;;16.13;11.60;;;14.80;1.00;;;;;;5033830;28;20416;-74
2023/04/28 09:18:56;;;;;;;16.10;11.90;;;14.90;1.00;;;;;;5034195;28;20397;-81
2023/04/28 09:24:43;;;;;;;18.23;12.20;;;15.20;1.00;;;;;;5034230;28;20429;-82
2023/04/28 09:30:38;;;;;;;23.17;11.70;;;15.60;1.00;;;;;;5034113;28;20199;-81
2023/04/28 09:33:05;;;;;;;21.03;13.03;;;15.90;1.00;;;;;;5034194;28;21069;-81
2023/04/28 09:38:56;;;;;;;15.73;11.60;;;16.50;1.00;;;;;;5037660;28;20415;-81
2023/04/28 09:45:10;;;;;;;17.70;12.40;;;16.60;1.00;;;;;;5033924;28;20387;-80
2023/04/28 09:50:58;;;;;;;19.00;12.47;;;16.80;1.00;;;;;;5073687;28;20471;-80
2023/04/28 09:56:46;;;;;;;21.50;15.00;;;16.90;1.00;;;;;;5049341;28;20457;-80
2023/04/28 10:02:35;;;;;;;23.53;15.10;;;17.00;1.00;;;;;;5054878;28;20217;-81
2023/04/28 10:11:44;;;;;;;28.27;15.40;;;17.30;1.00;;;;;;5033603;28;20373;-77
2023/04/28 10:14:10;;;;;;;26.00;15.70;;;17.40;1.00;;;;;;5044175;28;20436;-74
2023/04/28 10:16:37;;;;;;;20.17;15.10;;;17.40;1.00;;;;;;5043470;28;20212;-74
2023/04/28 10:22:46;;;;;;;37.00;17.47;;;17.70;1.00;;;;;;5073342;28;20442;-81
2023/04/28 10:28:34;;;;;;;26.13;16.93;;;17.90;1.00;;;;;;5033326;28;20883;-82
2023/04/28 10:41:30;;;;;;;25.83;16.60;;;18.40;1.00;;;;;;5057128;28;20420;-81
2023/04/28 10:43:58;;;;;;;26.30;16.10;;;18.40;1.00;;;;;;5053233;28;20895;-81
2023/04/28 10:47:01;;;;;;;24.30;16.40;;;18.30;1.00;;;;;;5043295;28;20420;-81
2023/04/28 10:52:49;;;;;;;23.93;14.70;;;18.10;1.00;;;;;;5056987;28;20393;-81
2023/04/28 10:58:44;;;;;;;20.50;14.20;;;18.60;1.00;;;;;;5036592;28;20732;-82
2023/04/28 11:01:45;;;;;;;22.47;14.60;;;18.80;1.00;;;;;;5036961;28;20418;-82
2023/04/28 11:04:59;;;;;;;23.63;14.30;;;19.00;1.00;;;;;;5044088;28;20454;-81
2023/04/28 11:14:19;;;;;;;21.93;12.93;;;20.00;1.00;;;;;;5056176;28;20399;-81
2023/04/28 11:17:12;;;;;;;18.33;12.10;;;19.80;1.00;;;;;;5038478;28;20466;-82
2023/04/28 11:19:38;;;;;;;20.60;11.57;;;19.70;1.00;;;;;;5035349;28;20425;-75
2023/04/28 11:22:10;;;;;;;17.37;10.83;;;19.60;1.00;;;;;;5036505;28;20405;-75
2023/04/28 11:24:55;;;;;;;12.30;10.00;;;19.80;1.00;;;;;;5070355;28;20455;-75
2023/04/28 11:27:30;;;;;;;13.67;9.87;;;20.10;1.00;;;;;;5057742;28;20434;-74
2023/04/28 11:29:56;;;;;;;14.57;10.53;;;20.20;1.00;;;;;;5076366;28;20392;-74
2023/04/28 11:32:48;;;;;;;17.83;9.40;;;20.10;1.00;;;;;;5065747;28;20437;-76
2023/04/28 11:35:14;;;;;;;16.50;10.37;;;19.90;1.00;;;;;;5076876;28;20166;-75
2023/04/28 11:37:40;;;;;;;13.73;10.53;;;19.50;1.00;;;;;;5053518;28;20531;-74
2023/04/28 11:40:12;;;;;;;13.53;10.43;;;19.50;1.00;;;;;;5036273;28;20641;-74
2023/04/28 11:42:49;;;;;;;15.00;11.20;;;19.70;1.00;;;;;;5043091;28;20196;-74
2023/04/28 11:45:22;;;;;;;14.83;9.70;;;20.00;1.00;;;;;;5035152;28;20468;-74
2023/04/28 11:51:28;;;;;;;15.50;11.30;;;19.60;1.00;;;;;;5055888;28;20411;-75
2023/04/28 11:53:54;;;;;;;13.43;9.50;;;19.60;1.00;;;;;;5055894;28;20388;-74
2023/04/28 11:56:29;;;;;;;14.60;10.00;;;19.60;1.00;;;;;;5051055;28;20464;-76
2023/04/28 11:59:11;;;;;;;14.40;10.20;;;19.20;1.00;;;;;;5050696;28;20201;-76
2023/04/28 12:01:51;;;;;;;12.17;9.00;;;19.00;1.00;;;;;;5055308;28;20427;-76
2023/04/28 12:04:35;;;;;;;10.20;8.57;;;19.40;1.00;;;;;;5047499;28;20450;-76
2023/04/28 12:07:18;;;;;;;7.80;6.97;;;19.20;1.00;;;;;;5054634;28;20788;-75
2023/04/28 12:10:05;;;;;;;9.93;6.97;;;19.20;1.00;;;;;;5048451;28;20431;-75
2023/04/28 12:12:51;;;;;;;12.10;6.63;;;19.00;1.00;;;;;;5018050;28;20432;-75
2023/04/28 12:15:23;;;;;;;12.80;7.70;;;19.00;1.00;;;;;;5044269;28;20419;-75
2023/04/28 12:18:27;;;;;;;11.23;8.10;;;19.10;1.00;;;;;;5054522;28;20489;-76
2023/04/28 12:24:20;;;;;;;7.90;6.33;;;19.50;1.00;;;;;;5035099;28;20850;-82
2023/04/28 12:30:19;;;;;;;13.00;6.83;;;19.90;1.00;;;;;;5059780;28;20410;-83
2023/04/28 12:32:47;;;;;;;11.63;7.80;;;19.90;1.00;;;;;;5055324;28;20466;-83
2023/04/28 12:35:27;;;;;;;10.17;6.97;;;20.00;1.00;;;;;;5055392;28;20887;-83
2023/04/28 12:37:58;;;;;;;9.93;7.33;;;20.40;1.00;;;;;;5033043;28;20958;-82
2023/04/28 12:40:24;;;;;;;12.43;7.43;;;20.80;1.00;;;;;;5056287;28;20435;-83
2023/04/28 12:42:50;;;;;;;8.30;7.00;;;20.60;1.00;;;;;;5054856;28;20446;-83
2023/04/28 12:45:22;;;;;;;8.10;6.87;;;20.50;1.00;;;;;;5054552;28;20864;-82
2023/04/28 12:48:40;;;;;;;7.57;6.00;;;20.60;1.00;;;;;;5065907;28;20420;-83
2023/04/28 12:51:07;;;;;;;6.37;5.70;;;20.70;1.00;;;;;;5055949;28;20421;-82
2023/04/28 12:53:33;;;;;;;5.60;4.83;;;20.60;1.00;;;;;;5060577;28;20437;-82
2023/04/28 12:55:59;;;;;;;7.50;5.83;;;20.70;1.00;;;;;;5053653;28;20807;-83
2023/04/28 12:58:25;;;;;;;4.87;4.33;;;20.60;1.00;;;;;;5053813;28;20426;-82
2023/04/28 13:00:52;;;;;;;6.10;5.50;;;20.60;1.00;;;;;;5053649;28;20186;-83
2023/04/28 13:03:22;;;;;;;6.33;4.80;;;20.30;1.00;;;;;;5052833;28;20620;-81
2023/04/28 13:05:48;;;;;;;6.27;4.57;;;20.00;1.00;;;;;;5045103;28;20551;-77
2023/04/28 13:08:14;;;;;;;6.33;5.00;;;20.40;1.00;;;;;;5053172;28;20507;-76
2023/04/28 13:10:40;;;;;;;6.23;5.63;;;20.20;1.00;;;;;;5052925;28;20257;-76
2023/04/28 13:13:22;;;;;;;5.43;4.53;;;20.20;1.00;;;;;;5053831;28;20159;-77
2023/04/28 13:16:10;;;;;;;6.30;5.33;;;20.20;1.00;;;;;;5053940;28;20186;-76
2023/04/28 13:19:08;;;;;;;6.20;5.37;;;20.10;1.00;;;;;;5054608;28;20396;-76
2023/04/28 13:24:55;;;;;;;6.10;4.90;;;20.20;1.00;;;;;;5035841;28;20495;-82
2023/04/28 13:27:39;;;;;;;11.60;5.07;;;20.40;1.00;;;;;;5070419;28;20455;-82
2023/04/28 13:33:30;;;;;;;5.70;5.10;;;21.10;1.00;;;;;;5034401;28;20410;-80
2023/04/28 13:35:58;;;;;;;4.13;3.83;;;20.70;1.00;;;;;;5059586;28;20498;-75
2023/04/28 13:38:35;;;;;;;4.60;4.20;;;20.30;1.00;;;;;;5054890;28;20430;-75
2023/04/28 13:41:04;;;;;;;3.77;3.47;;;20.30;1.00;;;;;;5043875;28;20777;-75
2023/04/28 13:43:30;;;;;;;5.10;4.60;;;20.50;1.00;;;;;;5053795;28;20767;-75
2023/04/28 13:45:58;;;;;;;5.40;4.90;;;20.40;1.00;;;;;;5058291;28;20420;-75
2023/04/28 13:48:35;;;;;;;5.63;5.10;;;19.90;1.00;;;;;;5065571;28;20421;-74
2023/04/28 13:51:27;;;;;;;4.67;4.27;;;19.70;1.00;;;;;;5041439;28;20520;-83
2023/04/28 13:57:15;;;;;;;9.53;6.70;;;19.70;1.00;;;;;;5033483;28;20501;-82
2023/04/28 14:03:03;;;;;;;6.80;6.10;;;19.60;1.00;;;;;;5033502;28;20563;-84
2023/04/28 14:05:30;;;;;;;8.50;6.50;;;19.40;1.00;;;;;;5016020;28;20425;-74
2023/04/28 14:07:58;;;;;;;7.13;6.10;;;19.30;1.00;;;;;;5043613;28;20188;-74
2023/04/28 14:10:46;;;;;;;6.40;5.80;;;19.30;1.00;;;;;;5046551;28;20425;-74
2023/04/28 14:13:12;;;;;;;6.73;6.13;;;19.50;1.00;;;;;;5049497;28;20443;-75
2023/04/28 14:15:39;;;;;;;6.30;5.70;;;19.70;1.00;;;;;;5042181;28;20625;-75
2023/04/28 14:18:11;;;;;;;6.77;5.50;;;20.00;1.00;;;;;;5033806;28;20409;-74
2023/04/28 14:21:22;;;;;;;7.90;6.00;;;19.80;1.00;;;;;;5034838;28;20451;-81
2023/04/28 14:24:10;;;;;;;6.10;5.40;;;20.00;1.00;;;;;;5033288;28;20451;-81
2023/04/28 14:29:57;;;;;;;5.70;4.90;;;20.70;1.00;;;;;;5035336;28;20367;-82
2023/04/28 14:35:45;;;;;;;5.77;5.27;;;21.60;1.00;;;;;;5033481;28;20712;-81
2023/04/28 14:41:32;;;;;;;4.87;3.63;;;21.90;1.00;;;;;;5072418;28;20187;-81
2023/04/28 14:51:27;;;;;;;4.57;2.50;;;22.60;1.00;;;;;;5055255;28;20429;-81
2023/04/28 14:57:15;;;;;;;3.53;2.40;;;22.80;1.00;;;;;;5049006;28;20780;-81
2023/04/28 15:03:52;;;;;;;1.77;1.67;;;23.10;1.00;;;;;;5036538;28;20204;-82
2023/04/28 15:09:40;;;;;;;1.70;1.63;;;23.80;1.00;;;;;;5047554;28;20404;-82
2023/04/28 15:12:58;;;;;;;1.80;1.70;;;24.30;1.00;;;;;;5032884;28;20824;-82
2023/04/28 15:22:16;;;;;;;2.03;1.93;;;26.00;1.00;;;;;;5042017;28;20424;-82
2023/04/28 15:24:42;;;;;;;1.97;1.87;;;26.40;1.00;;;;;;5048388;28;20462;-74
2023/04/28 15:27:16;;;;;;;1.87;1.77;;;25.80;1.00;;;;;;5044059;28;20455;-74
2023/04/28 15:29:52;;;;;;;2.50;2.30;;;25.50;1.00;;;;;;5036881;28;20187;-73
2023/04/28 15:32:18;;;;;;;3.17;2.27;;;24.80;1.00;;;;;;5068886;28;20424;-74
2023/04/28 15:34:43;;;;;;;2.30;2.20;;;24.40;1.00;;;;;;5054908;28;20749;-73
2023/04/28 15:40:31;;;;;;;2.90;2.27;;;23.10;1.00;;;;;;5076258;28;20251;-84
2023/04/28 15:42:57;;;;;;;2.50;2.40;;;22.30;1.00;;;;;;5034522;28;20566;-87
2023/04/28 15:48:44;;;;;;;3.53;2.50;;;21.80;1.00;;;;;;5036776;28;20297;-88
2023/04/28 15:54:31;;;;;;;2.30;2.20;;;21.40;1.00;;;;;;5038191;28;20187;-88
2023/04/28 16:00:19;;;;;;;2.17;2.00;;;21.00;1.00;;;;;;5056151;28;20211;-88
2023/04/28 16:02:45;;;;;;;2.57;2.37;;;20.80;1.00;;;;;;5038622;28;20450;-88
2023/04/28 16:08:34;;;;;;;2.10;2.00;;;20.50;1.00;;;;;;5047452;28;20262;-87
2023/04/28 16:24:27;;;;;;;2.50;2.30;;;19.70;1.00;;;;;;5053802;28;20549;-89
2023/04/28 16:27:28;;;;;;;2.13;2.03;;;19.70;1.00;;;;;;5037680;28;20464;-89
2023/04/28 16:33:16;;;;;;;2.50;2.30;;;19.50;1.00;;;;;;5035771;28;20436;-86
2023/04/28 16:39:03;;;;;;;2.07;1.70;;;19.50;1.00;;;;;;5072902;28;20179;-84
2023/04/28 16:52:22;;;;;;;2.60;2.03;;;18.90;1.00;;;;;;5118048;27;1243808;-85
2023/04/28 16:55:10;;;;;;;2.53;1.80;;;19.00;1.00;;;;;;5128884;28;20213;-83
2023/04/28 17:00:57;;;;;;;6.53;2.00;;;19.00;1.00;;;;;;5111204;27;20455;-82
2023/04/28 17:03:58;;;;;;;2.93;2.00;;;20.20;1.00;;;;;;5131938;28;20439;-84
2023/04/28 17:06:37;;;;;;;2.00;1.60;;;22.20;1.00;;;;;;5115015;27;20268;-83
2023/04/28 17:09:17;;;;;;;1.83;1.23;;;23.00;1.00;;;;;;5125275;27;20434;-82
2023/04/28 17:12:22;;;;;;;1.50;1.40;;;24.30;1.00;;;;;;5122363;27;20472;-84
2023/04/28 17:15:12;;;;;;;2.87;1.50;;;25.10;1.00;;;;;;5131623;27;20752;-84
2023/04/28 17:17:40;;;;;;;2.40;1.10;;;25.10;1.00;;;;;;5111435;27;20513;-84
2023/04/28 17:20:28;;;;;;;6.67;1.20;;;24.80;1.00;;;;;;5111130;27;20450;-83
2023/04/28 17:26:16;;;;;;;1.90;1.50;;;23.40;1.00;;;;;;5110966;27;20867;-81
2023/04/28 17:28:58;;;;;;;2.13;1.33;;;22.80;1.00;;;;;;5109600;28;20434;-80
2023/04/28 17:32:10;;;;;;;1.60;1.50;;;22.30;1.00;;;;;;5110568;28;20468;-81
2023/04/28 17:37:57;;;;;;;3.20;1.40;;;20.70;1.00;;;;;;5111493;27;20425;-81
2023/04/28 17:40:34;;;;;;;1.70;1.53;;;20.60;1.00;;;;;;5111382;28;20406;-85
2023/04/28 17:43:28;;;;;;;3.07;1.97;;;20.50;1.00;;;;;;5117146;28;20280;-86
2023/04/28 17:46:04;;;;;;;3.43;1.70;;;20.20;1.00;;;;;;5115433;28;20955;-86
2023/04/28 17:48:46;;;;;;;4.43;1.80;;;19.90;1.00;;;;;;5127184;28;20435;-86
2023/04/28 17:51:28;;;;;;;1.87;1.63;;;19.70;1.00;;;;;;5140472;27;20505;-85
2023/04/28 17:57:34;;;;;;;2.83;1.53;;;19.20;1.00;;;;;;5110900;28;20474;-83
2023/04/28 18:03:21;;;;;;;1.73;1.30;;;18.80;1.00;;;;;;5096484;28;20849;-86
2023/04/28 18:06:28;;;;;;;1.70;1.40;;;18.50;1.00;;;;;;5114485;28;20515;-81
2023/04/28 18:09:22;;;;;;;2.90;1.57;;;18.30;1.00;;;;;;5116828;28;20186;-84
2023/04/28 18:18:31;;;;;;;2.60;1.40;;;18.40;1.00;;;;;;5096744;28;20427;-87
2023/04/28 18:21:28;;;;;;;1.60;1.40;;;18.20;1.00;;;;;;5095863;28;20431;-87
2023/04/28 18:24:10;;;;;;;6.30;1.70;;;18.00;1.00;;;;;;5096233;28;20187;-88
2023/04/28 18:29:58;;;;;;;1.67;1.57;;;17.70;1.00;;;;;;5101890;28;20491;-84
2023/04/28 18:32:47;;;;;;;2.80;1.50;;;17.50;1.00;;;;;;5095341;28;20408;-83
2023/04/28 18:35:43;;;;;;;2.70;1.60;;;17.30;1.00;;;;;;5096358;28;20185;-89
2023/04/28 18:38:40;;;;;;;1.70;1.30;;;17.20;1.00;;;;;;5095521;28;20390;-86
2023/04/28 18:41:17;;;;;;;3.30;1.60;;;17.00;1.00;;;;;;5096201;28;20522;-85
2023/04/28 18:44:22;;;;;;;6.10;1.60;;;16.80;1.00;;;;;;5095358;28;20427;-88
2023/04/28 18:50:10;;;;;;;3.00;1.70;;;16.40;1.00;;;;;;5095663;28;20470;-88
2023/04/28 18:52:39;;;;;;;2.80;1.53;;;16.20;1.00;;;;;;5095485;28;20536;-88
2023/04/28 19:01:48;;;;;;;16.93;1.87;;;15.80;1.00;;;;;;5096151;28;20429;-84
2023/04/28 19:04:22;;;;;;;6.30;2.10;;;15.70;1.00;;;;;;5095400;28;20491;-83
2023/04/28 19:06:48;;;;;;;4.00;1.80;;;15.50;1.00;;;;;;5095774;28;20179;-84
2023/04/28 19:09:52;;;;;;;3.93;1.87;;;15.40;1.00;;;;;;5097801;28;20474;-87
2023/04/28 19:12:40;;;;;;;4.83;1.80;;;15.20;1.00;;;;;;5092101;28;20439;-90
2023/04/28 19:15:06;;;;;;;6.53;1.80;;;15.10;1.00;;;;;;5081871;28;20428;-89
2023/04/28 19:17:34;;;;;;;5.77;2.17;;;15.00;1.00;;;;;;5111990;27;20429;-89
2023/04/28 19:20:46;;;;;;;2.47;2.13;;;14.90;1.00;;;;;;5077762;28;20402;-89
2023/04/28 19:26:46;;;;;;;2.80;1.83;;;14.60;1.00;;;;;;5095435;28;20404;-89
2023/04/28 19:29:22;;;;;;;2.90;2.40;;;14.50;1.00;;;;;;5094869;28;20453;-85
2023/04/28 19:38:33;;;;;;;8.00;2.10;;;14.30;1.00;;;;;;5099677;28;20402;-91